Time;durP1;ratioP1;P1;durP2;ratioP2;P2;SDS_P1;SDS_P2;PMS_P1;PMS_P2;Temp;Humidity;BMP_temperature;BMP_pressure;BME280_temperature;BME280_humidity;BME280_pressure;Samples;Min_cycle;Max_cycle;Signal;HPM_P1;HPM_P2
2023/04/05 00:00:57;;;;;;;14.50;10.13;;;;;1.10;101869.00;;;;10356528;28;20203;-77
2023/04/05 00:06:01;;;;;;;14.77;9.30;;;;;1.10;101863.00;;;;10366847;28;20298;-77
2023/04/05 00:11:03;;;;;;;15.97;9.37;;;;;1.00;101870.00;;;;10376893;28;20289;-77
2023/04/05 00:16:05;;;;;;;14.67;8.90;;;;;0.90;101876.00;;;;10390417;28;20206;-77
2023/04/05 00:21:07;;;;;;;14.57;9.00;;;;;0.80;101871.00;;;;10357645;28;20304;-77
2023/04/05 00:26:11;;;;;;;12.50;9.27;;;;;0.70;101873.00;;;;10363502;28;20213;-77
2023/04/05 00:31:17;;;;;;;14.27;8.67;;;;;0.70;101882.00;;;;10386472;28;20708;-77
2023/04/05 00:36:19;;;;;;;17.00;8.93;;;;;0.60;101885.00;;;;10373689;28;20199;-77
2023/04/05 00:41:22;;;;;;;14.50;9.33;;;;;0.50;101874.00;;;;10387472;28;20238;-77
2023/04/05 00:46:25;;;;;;;12.63;9.17;;;;;0.40;101876.00;;;;10389158;28;20705;-77
2023/04/05 00:51:30;;;;;;;14.40;10.13;;;;;0.40;101879.00;;;;10380300;28;20204;-77
2023/04/05 00:56:32;;;;;;;16.33;9.80;;;;;0.40;101863.00;;;;10374363;28;20198;-77
2023/04/05 01:01:39;;;;;;;16.37;9.70;;;;;0.30;101865.00;;;;10372162;28;20246;-77
2023/04/05 01:07:02;;;;;;;15.47;9.40;;;;;0.30;101873.00;;;;10355106;28;20195;-77
2023/04/05 01:12:08;;;;;;;17.63;10.40;;;;;0.20;101875.00;;;;10370894;28;20211;-77
2023/04/05 01:17:10;;;;;;;15.27;9.73;;;;;0.20;101873.00;;;;10387008;28;20210;-77
2023/04/05 01:22:30;;;;;;;14.93;9.70;;;;;0.10;101858.00;;;;10349283;28;20222;-77
2023/04/05 01:28:02;;;;;;;15.90;9.13;;;;;0.10;101861.00;;;;10354267;28;20225;-77
2023/04/05 01:33:15;;;;;;;14.73;9.63;;;;;0.10;101850.00;;;;10341659;28;20720;-77
2023/04/05 01:38:24;;;;;;;15.00;9.97;;;;;0.00;101843.00;;;;10375002;28;20203;-77
2023/04/05 01:43:26;;;;;;;16.73;9.63;;;;;0.00;101848.00;;;;10373049;28;20211;-77
2023/04/05 01:48:28;;;;;;;15.23;9.47;;;;;-0.10;101840.00;;;;10365534;28;20616;-77
2023/04/05 01:53:30;;;;;;;16.63;10.07;;;;;-0.10;101835.00;;;;10386559;28;20205;-77
2023/04/05 01:58:32;;;;;;;17.37;10.00;;;;;-0.10;101824.00;;;;10408592;28;20198;-77
2023/04/05 02:03:34;;;;;;;18.90;10.60;;;;;-0.20;101828.00;;;;10378167;28;20218;-77
2023/04/05 02:08:36;;;;;;;15.50;9.03;;;;;-0.30;101825.00;;;;10366935;28;20234;-77
2023/04/05 02:13:39;;;;;;;18.53;10.30;;;;;-0.30;101817.00;;;;10383634;28;20202;-77
2023/04/05 02:18:42;;;;;;;20.40;9.93;;;;;-0.40;101805.00;;;;10338150;28;20253;-77
2023/04/05 02:23:44;;;;;;;16.83;10.53;;;;;-0.50;101802.00;;;;10364002;28;20223;-77
2023/04/05 02:28:46;;;;;;;15.20;9.40;;;;;-0.50;101804.00;;;;10366128;28;20218;-77
2023/04/05 02:33:48;;;;;;;14.93;9.47;;;;;-0.50;101801.00;;;;10334236;28;20200;-77
2023/04/05 02:38:50;;;;;;;15.67;9.83;;;;;-0.50;101792.00;;;;10378294;28;20237;-77
2023/04/05 02:43:52;;;;;;;21.87;10.90;;;;;-0.50;101800.00;;;;10366598;28;20273;-77
2023/04/05 02:48:54;;;;;;;14.27;8.93;;;;;-0.50;101790.00;;;;10369650;28;20238;-77
2023/04/05 02:54:01;;;;;;;18.13;9.03;;;;;-0.60;101788.00;;;;10341040;28;20206;-77
2023/04/05 02:59:04;;;;;;;15.47;10.13;;;;;-0.70;101788.00;;;;10372625;28;20207;-76
2023/04/05 03:04:06;;;;;;;16.03;9.13;;;;;-0.80;101778.00;;;;10350216;28;20341;-77
2023/04/05 03:09:09;;;;;;;16.37;9.07;;;;;-0.90;101775.00;;;;10393286;28;20191;-77
2023/04/05 03:14:12;;;;;;;11.80;8.73;;;;;-1.00;101768.00;;;;10344779;28;20217;-77
2023/04/05 03:19:21;;;;;;;16.80;9.03;;;;;-1.10;101767.00;;;;10390085;28;20209;-77
2023/04/05 03:24:27;;;;;;;15.00;9.23;;;;;-1.10;101757.00;;;;10384269;28;20237;-77
2023/04/05 03:29:32;;;;;;;11.60;8.57;;;;;-1.20;101768.00;;;;10412924;28;20206;-77
2023/04/05 03:34:42;;;;;;;17.23;9.63;;;;;-1.20;101766.00;;;;10378937;28;20203;-77
2023/04/05 03:39:47;;;;;;;17.10;9.63;;;;;-1.20;101757.00;;;;10364400;28;20195;-77
2023/04/05 03:44:52;;;;;;;16.20;9.47;;;;;-1.20;101764.00;;;;10373209;28;20547;-77
2023/04/05 03:49:55;;;;;;;15.17;9.83;;;;;-1.20;101766.00;;;;10375217;28;20223;-77
2023/04/05 03:54:57;;;;;;;16.97;10.93;;;;;-1.30;101768.00;;;;10390264;28;20237;-77
2023/04/05 04:00:00;;;;;;;15.93;9.83;;;;;-1.30;101763.00;;;;10391206;28;20496;-77
2023/04/05 04:05:16;;;;;;;15.30;10.70;;;;;-1.30;101763.00;;;;10361364;28;20191;-77
2023/04/05 04:10:21;;;;;;;16.23;10.10;;;;;-1.30;101760.00;;;;10373952;28;20191;-77
2023/04/05 04:15:27;;;;;;;18.33;10.93;;;;;-1.40;101758.00;;;;10357810;28;20314;-77
2023/04/05 04:20:42;;;;;;;20.17;10.60;;;;;-1.40;101744.00;;;;10368913;28;20220;-77
2023/04/05 04:26:08;;;;;;;16.13;10.03;;;;;-1.30;101748.00;;;;10383811;28;20243;-77
2023/04/05 04:31:13;;;;;;;24.40;10.20;;;;;-1.40;101742.00;;;;10387755;28;20483;-77
2023/04/05 04:36:41;;;;;;;15.47;10.17;;;;;-1.50;101739.00;;;;10355769;28;20908;-77
2023/04/05 04:42:10;;;;;;;20.17;11.30;;;;;-1.50;101739.00;;;;10363908;28;20757;-77
2023/04/05 04:47:31;;;;;;;14.03;9.63;;;;;-1.50;101737.00;;;;10380407;28;20205;-77
2023/04/05 04:53:03;;;;;;;14.37;9.90;;;;;-1.60;101736.00;;;;10354853;28;20206;-77
2023/04/05 04:58:08;;;;;;;16.90;10.87;;;;;-1.50;101737.00;;;;10369453;28;20206;-77
2023/04/05 05:03:11;;;;;;;13.43;8.70;;;;;-1.50;101735.00;;;;10384824;28;20373;-77
2023/04/05 05:08:13;;;;;;;13.63;9.33;;;;;-1.50;101729.00;;;;10370556;28;20231;-77
2023/04/05 05:13:16;;;;;;;15.10;9.07;;;;;-1.50;101741.00;;;;10368802;28;20296;-77
2023/04/05 05:18:19;;;;;;;18.47;10.57;;;;;-1.50;101735.00;;;;10385559;28;20410;-77
2023/04/05 05:23:21;;;;;;;16.83;10.17;;;;;-1.40;101751.00;;;;10337540;28;20218;-77
2023/04/05 05:28:25;;;;;;;15.77;9.87;;;;;-1.20;101747.00;;;;10390498;28;20672;-77
2023/04/05 05:33:27;;;;;;;19.93;11.60;;;;;-1.00;101751.00;;;;10382093;28;20198;-77
2023/04/05 05:38:29;;;;;;;18.87;11.17;;;;;-0.80;101753.00;;;;10389036;28;20222;-77
2023/04/05 05:43:31;;;;;;;18.23;11.17;;;;;-0.50;101762.00;;;;10346035;28;20237;-77
2023/04/05 05:48:33;;;;;;;19.33;12.00;;;;;-0.30;101753.00;;;;10381687;28;20423;-77
2023/04/05 05:53:36;;;;;;;22.57;11.23;;;;;-0.10;101749.00;;;;10379966;28;20210;-77
2023/04/05 05:58:38;;;;;;;17.53;11.97;;;;;0.20;101746.00;;;;10389179;28;20209;-77
2023/04/05 06:03:40;;;;;;;21.93;11.77;;;;;0.50;101754.00;;;;10403274;28;20631;-77
2023/04/05 06:08:43;;;;;;;23.40;13.10;;;;;0.90;101755.00;;;;10383939;28;20199;-77
2023/04/05 06:13:45;;;;;;;19.07;12.80;;;;;1.30;101755.00;;;;10370127;28;20566;-77
2023/04/05 06:18:47;;;;;;;18.47;12.70;;;;;1.70;101758.00;;;;10397021;28;20234;-78
2023/04/05 06:23:49;;;;;;;21.57;12.50;;;;;2.00;101763.00;;;;10358814;28;20317;-77
2023/04/05 06:28:53;;;;;;;19.17;12.73;;;;;2.40;101777.00;;;;10386223;28;20198;-78
2023/04/05 06:33:55;;;;;;;22.10;12.80;;;;;3.10;101771.00;;;;10364955;28;20252;-78
2023/04/05 06:38:56;;;;;;;22.27;11.90;;;;;3.70;101767.00;;;;10332296;28;20805;-78
2023/04/05 06:43:58;;;;;;;21.60;12.13;;;;;4.20;101777.00;;;;10380431;28;20223;-78
2023/04/05 06:49:00;;;;;;;24.70;11.20;;;;;4.60;101784.00;;;;10356013;28;20210;-78
2023/04/05 06:54:04;;;;;;;19.40;11.63;;;;;5.00;101777.00;;;;10351833;28;20312;-78
2023/04/05 06:59:07;;;;;;;21.03;12.17;;;;;5.40;101783.00;;;;10380007;28;20199;-77
2023/04/05 07:04:09;;;;;;;20.97;12.33;;;;;5.90;101778.00;;;;10387471;28;20222;-78
2023/04/05 07:09:11;;;;;;;23.60;13.07;;;;;6.60;101781.00;;;;10377949;28;20199;-77
2023/04/05 07:14:13;;;;;;;18.57;11.50;;;;;7.30;101786.00;;;;10338316;28;20302;-77
2023/04/05 07:19:15;;;;;;;16.77;11.27;;;;;7.70;101773.00;;;;10380734;28;20222;-78
2023/04/05 07:24:17;;;;;;;17.40;11.93;;;;;8.00;101775.00;;;;10383224;28;20268;-78
2023/04/05 07:29:19;;;;;;;16.93;9.83;;;;;8.50;101779.00;;;;10377722;28;21036;-75
2023/04/05 07:34:21;;;;;;;17.47;11.10;;;;;8.90;101765.00;;;;10364837;28;20187;-77
2023/04/05 07:39:23;;;;;;;15.07;9.80;;;;;9.20;101771.00;;;;10386950;28;20203;-78
2023/04/05 07:44:25;;;;;;;15.53;10.23;;;;;9.50;101772.00;;;;10369581;28;20339;-76
2023/04/05 07:49:27;;;;;;;16.40;9.47;;;;;9.80;101774.00;;;;10383998;28;20922;-78
2023/04/05 07:54:32;;;;;;;15.80;10.40;;;;;10.20;101767.00;;;;10386574;28;20226;-76
2023/04/05 07:59:35;;;;;;;16.23;10.37;;;;;10.70;101769.00;;;;10322366;28;20203;-76
2023/04/05 08:04:37;;;;;;;16.07;10.60;;;;;11.20;101763.00;;;;10385841;28;20222;-76
2023/04/05 08:09:40;;;;;;;16.93;8.57;;;;;11.60;101756.00;;;;10378104;28;20190;-76
2023/04/05 08:14:42;;;;;;;10.63;8.40;;;;;11.70;101764.00;;;;10373613;28;20196;-76
2023/04/05 08:19:44;;;;;;;13.03;8.83;;;;;12.00;101760.00;;;;10404285;28;20276;-76
2023/04/05 08:24:46;;;;;;;13.60;7.83;;;;;12.10;101764.00;;;;10406539;28;20313;-76
2023/04/05 08:29:48;;;;;;;12.30;8.47;;;;;12.50;101759.00;;;;10366207;28;20229;-76
2023/04/05 08:34:50;;;;;;;13.10;8.80;;;;;13.00;101763.00;;;;10387761;28;20225;-76
2023/04/05 08:39:52;;;;;;;14.33;8.53;;;;;13.20;101760.00;;;;10365277;28;20203;-76
2023/04/05 08:44:57;;;;;;;13.00;8.67;;;;;13.50;101757.00;;;;10377020;28;20215;-75
2023/04/05 08:49:59;;;;;;;10.55;8.15;;;;;13.90;101745.00;;;;10362810;28;20198;-76
2023/04/05 08:55:01;;;;;;;12.47;7.90;;;;;14.50;101748.00;;;;10384206;28;20193;-76
2023/04/05 09:00:08;;;;;;;9.43;7.32;;;;;14.80;101759.00;;;;10392075;28;20475;-76
2023/04/05 09:05:12;;;;;;;9.32;7.25;;;;;15.30;101741.00;;;;10366783;28;20211;-75
2023/04/05 09:10:17;;;;;;;10.77;7.25;;;;;15.50;101752.00;;;;10373783;28;20231;-77
2023/04/05 09:15:23;;;;;;;7.50;6.20;;;;;15.50;101747.00;;;;10361384;28;20195;-77
2023/04/05 09:20:25;;;;;;;10.80;7.07;;;;;15.70;101746.00;;;;10350426;28;20877;-76
2023/04/05 09:25:38;;;;;;;10.18;6.68;;;;;15.70;101754.00;;;;10382039;28;20215;-77
2023/04/05 09:30:45;;;;;;;9.15;7.35;;;;;15.90;101750.00;;;;10383097;28;20211;-77
2023/04/05 09:35:50;;;;;;;9.75;6.93;;;;;16.20;101746.00;;;;10359324;28;20213;-77
2023/04/05 09:40:53;;;;;;;8.60;6.93;;;;;16.30;101743.00;;;;10381070;28;20203;-75
2023/04/05 09:46:02;;;;;;;10.77;7.97;;;;;16.70;101736.00;;;;10366146;28;20217;-76
2023/04/05 09:51:05;;;;;;;9.32;7.53;;;;;16.70;101733.00;;;;10386488;28;20669;-76
2023/04/05 09:56:13;;;;;;;7.93;6.93;;;;;16.90;101738.00;;;;10383605;28;20242;-76
2023/04/05 10:01:16;;;;;;;10.65;8.00;;;;;16.90;101732.00;;;;10374403;28;20198;-76
2023/04/05 10:06:18;;;;;;;11.80;7.97;;;;;16.90;101733.00;;;;10334530;28;20187;-76
2023/04/05 10:11:21;;;;;;;10.35;7.18;;;;;17.00;101730.00;;;;10385506;28;20206;-76
2023/04/05 10:16:25;;;;;;;12.15;7.93;;;;;17.50;101726.00;;;;10371162;28;20280;-76
2023/04/05 10:21:35;;;;;;;11.45;7.82;;;;;17.60;101717.00;;;;10349335;28;20211;-76
2023/04/05 10:26:55;;;;;;;12.63;8.07;;;;;17.60;101714.00;;;;10367966;28;20265;-76
2023/04/05 10:32:10;;;;;;;12.75;8.70;;;;;17.90;101711.00;;;;10368266;28;20304;-76
2023/04/05 10:37:51;;;;;;;11.63;8.20;;;;;17.80;101712.00;;;;10377108;28;20309;-76
2023/04/05 10:42:53;;;;;;;11.65;8.00;;;;;18.40;101708.00;;;;10363144;28;20230;-76
2023/04/05 10:48:05;;;;;;;9.98;7.28;;;;;18.70;101705.00;;;;10362435;28;20213;-76
2023/04/05 10:53:09;;;;;;;11.30;7.60;;;;;18.90;101700.00;;;;10353404;28;20297;-76
2023/04/05 10:58:13;;;;;;;12.10;8.38;;;;;18.90;101701.00;;;;10374125;28;20198;-77
2023/04/05 11:04:00;;;;;;;10.95;8.35;;;;;18.80;101687.00;;;;10368753;28;20246;-76
2023/04/05 11:09:16;;;;;;;9.88;7.68;;;;;18.60;101688.00;;;;10356264;28;20213;-76
2023/04/05 11:14:24;;;;;;;10.40;8.00;;;;;18.90;101679.00;;;;10369291;28;20190;-77
2023/04/05 11:19:41;;;;;;;11.40;8.48;;;;;19.30;101686.00;;;;10375045;28;20210;-76
2023/04/05 11:24:52;;;;;;;15.82;9.18;;;;;19.70;101682.00;;;;10410846;28;20221;-77
2023/04/05 11:29:56;;;;;;;10.93;8.18;;;;;19.30;101677.00;;;;10406109;28;20194;-76
2023/04/05 11:35:05;;;;;;;11.23;8.55;;;;;19.60;101675.00;;;;10387927;28;20198;-76
2023/04/05 11:40:27;;;;;;;11.85;7.88;;;;;19.80;101681.00;;;;10344683;28;20211;-76
2023/04/05 11:45:31;;;;;;;10.52;8.40;;;;;19.90;101668.00;;;;10373416;28;20218;-76
2023/04/05 11:50:34;;;;;;;10.52;8.48;;;;;19.80;101654.00;;;;10356247;28;20202;-76
2023/04/05 11:56:03;;;;;;;8.43;6.70;;;;;19.80;101665.00;;;;10371010;28;20937;-76
2023/04/05 12:01:06;;;;;;;12.23;6.95;;;;;19.90;101650.00;;;;10370145;28;20201;-77
2023/04/05 12:06:08;;;;;;;10.65;7.25;;;;;20.40;101637.00;;;;10386597;28;20214;-76
2023/04/05 12:11:12;;;;;;;9.73;8.38;;;;;20.50;101629.00;;;;10355399;28;20187;-77
2023/04/05 12:16:15;;;;;;;9.70;7.90;;;;;20.00;101626.00;;;;10336940;28;20670;-79
2023/04/05 12:21:17;;;;;;;10.75;8.32;;;;;19.90;101625.00;;;;10371930;28;20195;-78
2023/04/05 12:26:21;;;;;;;12.55;8.18;;;;;19.90;101606.00;;;;10368454;28;20226;-79
2023/04/05 12:31:45;;;;;;;10.30;7.93;;;;;19.70;101617.00;;;;10363386;28;20842;-78
2023/04/05 12:36:47;;;;;;;13.38;8.73;;;;;19.70;101603.00;;;;10349449;28;20247;-78
2023/04/05 12:41:58;;;;;;;11.60;7.40;;;;;20.10;101609.00;;;;10345197;28;20253;-78
2023/04/05 12:47:09;;;;;;;11.25;7.93;;;;;20.20;101595.00;;;;10388997;28;20202;-77
2023/04/05 12:52:18;;;;;;;10.10;7.57;;;;;20.60;101598.00;;;;10343299;28;20206;-78
2023/04/05 12:57:33;;;;;;;11.90;7.70;;;;;20.70;101585.00;;;;10367583;28;20210;-78
2023/04/05 13:02:35;;;;;;;11.27;7.68;;;;;20.90;101578.00;;;;10368925;28;20218;-77
2023/04/05 13:07:37;;;;;;;12.52;8.82;;;;;20.60;101585.00;;;;10370580;28;20573;-78
2023/04/05 13:12:39;;;;;;;13.32;8.43;;;;;20.60;101575.00;;;;10363584;28;20205;-77
2023/04/05 13:17:48;;;;;;;12.13;8.00;;;;;20.80;101565.00;;;;10353552;28;20220;-77
2023/04/05 13:22:51;;;;;;;9.77;7.88;;;;;21.40;101553.00;;;;10382116;28;20219;-77
2023/04/05 13:27:53;;;;;;;12.65;8.35;;;;;21.20;101541.00;;;;10354224;28;20811;-78
2023/04/05 13:32:55;;;;;;;10.45;7.70;;;;;22.00;101536.00;;;;10353278;28;20195;-77
2023/04/05 13:37:57;;;;;;;12.38;8.52;;;;;20.90;101536.00;;;;10367934;28;20214;-77
2023/04/05 13:43:02;;;;;;;8.82;7.40;;;;;22.70;101534.00;;;;10389809;28;20215;-77
2023/04/05 13:48:04;;;;;;;13.70;8.20;;;;;23.20;101525.00;;;;10393289;28;20614;-77
2023/04/05 13:53:07;;;;;;;11.75;8.05;;;;;23.10;101524.00;;;;10369340;28;20207;-77
2023/04/05 13:58:09;;;;;;;13.30;8.80;;;;;23.50;101516.00;;;;10369527;28;20195;-77
2023/04/05 14:03:11;;;;;;;11.35;7.95;;;;;24.10;101498.00;;;;10386096;28;20908;-77
2023/04/05 14:08:13;;;;;;;13.02;8.35;;;;;26.00;101494.00;;;;10325189;28;20202;-77
2023/04/05 14:13:16;;;;;;;13.63;8.68;;;;;26.10;101491.00;;;;10385481;28;20278;-77
2023/04/05 14:18:18;;;;;;;11.82;8.35;;;;;26.50;101480.00;;;;10376702;28;20203;-77
2023/04/05 14:23:21;;;;;;;10.38;7.80;;;;;26.00;101493.00;;;;10334396;28;20215;-77
2023/04/05 14:28:23;;;;;;;13.15;7.82;;;;;25.60;101483.00;;;;10383997;28;20213;-76
2023/04/05 14:33:26;;;;;;;13.00;8.25;;;;;24.80;101483.00;;;;10353977;28;20866;-77
2023/04/05 14:38:28;;;;;;;10.70;7.90;;;;;24.10;101467.00;;;;10388887;28;20196;-77
2023/04/05 14:43:30;;;;;;;11.55;8.05;;;;;25.00;101459.00;;;;10361061;28;20223;-77
2023/04/05 14:48:32;;;;;;;11.82;7.50;;;;;25.20;101448.00;;;;10373583;28;20191;-77
2023/04/05 14:53:35;;;;;;;12.68;8.88;;;;;24.70;101462.00;;;;10410951;28;20261;-77
2023/04/05 14:58:37;;;;;;;11.90;8.55;;;;;24.00;101457.00;;;;10394614;28;20834;-77
2023/04/05 15:03:40;;;;;;;10.85;7.70;;;;;23.00;101461.00;;;;10393389;28;20538;-78
2023/04/05 15:08:42;;;;;;;13.15;7.75;;;;;21.20;101451.00;;;;10387427;28;20209;-77
2023/04/05 15:13:44;;;;;;;13.27;8.02;;;;;20.80;101437.00;;;;10360713;28;20198;-77
2023/04/05 15:18:47;;;;;;;15.70;8.43;;;;;18.90;101433.00;;;;10358177;28;20914;-77
2023/04/05 15:23:49;;;;;;;14.05;9.00;;;;;18.10;101433.00;;;;10380059;28;20234;-78
2023/04/05 15:28:51;;;;;;;17.27;7.82;;;;;17.10;101430.00;;;;10400924;28;20302;-77
2023/04/05 15:33:53;;;;;;;14.55;8.65;;;;;16.30;101428.00;;;;10358284;28;20261;-77
2023/04/05 15:38:55;;;;;;;15.55;8.48;;;;;16.20;101424.00;;;;10378488;28;20615;-77
2023/04/05 15:43:58;;;;;;;14.00;8.45;;;;;15.90;101416.00;;;;10384887;28;20222;-77
2023/04/05 15:49:00;;;;;;;16.10;8.55;;;;;16.00;101415.00;;;;10374985;28;20195;-76
2023/04/05 15:54:03;;;;;;;12.55;8.70;;;;;16.10;101399.00;;;;10359683;28;20202;-77
2023/04/05 15:59:05;;;;;;;17.73;9.48;;;;;15.70;101404.00;;;;10381834;28;20199;-77
2023/04/05 16:04:07;;;;;;;13.98;9.13;;;;;15.40;101394.00;;;;10337493;28;20265;-77
2023/04/05 16:09:10;;;;;;;17.48;8.93;;;;;14.80;101391.00;;;;10377971;28;20257;-78
2023/04/05 16:14:12;;;;;;;14.95;9.40;;;;;14.50;101393.00;;;;10369799;28;20226;-77
2023/04/05 16:19:14;;;;;;;12.50;8.23;;;;;14.40;101391.00;;;;10374319;28;20199;-77
2023/04/05 16:24:16;;;;;;;14.27;9.63;;;;;14.30;101386.00;;;;10373882;28;20246;-77
2023/04/05 16:29:18;;;;;;;17.40;9.30;;;;;14.00;101383.00;;;;10374551;28;20653;-76
2023/04/05 16:34:21;;;;;;;13.80;8.57;;;;;13.60;101379.00;;;;10376771;28;20207;-76
2023/04/05 16:39:23;;;;;;;11.07;8.03;;;;;13.50;101374.00;;;;10344773;28;20267;-77
2023/04/05 16:44:25;;;;;;;12.33;7.80;;;;;13.40;101380.00;;;;10351850;28;20230;-77
2023/04/05 16:49:27;;;;;;;14.53;7.97;;;;;13.20;101382.00;;;;10374934;28;20195;-78
2023/04/05 16:54:30;;;;;;;11.93;7.53;;;;;13.00;101380.00;;;;10346034;28;20226;-77
2023/04/05 16:59:32;;;;;;;14.90;7.73;;;;;12.90;101379.00;;;;10374141;28;20217;-77
2023/04/05 17:04:35;;;;;;;15.23;8.57;;;;;12.70;101378.00;;;;10388299;28;20219;-77
2023/04/05 17:09:38;;;;;;;15.07;9.07;;;;;12.70;101378.00;;;;10351771;28;20226;-77
2023/04/05 17:14:40;;;;;;;13.60;9.00;;;;;12.40;101374.00;;;;10393892;28;20195;-77
2023/04/05 17:19:43;;;;;;;11.60;8.93;;;;;12.20;101374.00;;;;10358624;28;20199;-76
2023/04/05 17:24:45;;;;;;;14.70;9.20;;;;;12.00;101364.00;;;;10391077;28;20223;-77
2023/04/05 17:29:48;;;;;;;16.80;9.30;;;;;11.70;101367.00;;;;10380005;28;20183;-76
2023/04/05 17:34:50;;;;;;;11.83;7.93;;;;;11.50;101363.00;;;;10346653;28;20562;-77
2023/04/05 17:39:52;;;;;;;13.60;8.10;;;;;11.10;101370.00;;;;10353676;28;20206;-76
2023/04/05 17:44:54;;;;;;;11.53;7.27;;;;;10.90;101366.00;;;;10365842;28;20437;-76
2023/04/05 17:49:57;;;;;;;13.57;8.07;;;;;10.60;101359.00;;;;10362236;28;20341;-77
2023/04/05 17:55:00;;;;;;;11.67;7.63;;;;;10.40;101358.00;;;;10365399;28;20198;-79
2023/04/05 18:00:03;;;;;;;14.83;8.43;;;;;10.20;101358.00;;;;10381847;28;20186;-76
2023/04/05 18:05:06;;;;;;;15.33;8.47;;;;;9.90;101359.00;;;;10346576;28;20238;-78
2023/04/05 18:10:09;;;;;;;13.17;8.17;;;;;9.60;101356.00;;;;10345366;28;20202;-78
2023/04/05 18:15:11;;;;;;;15.07;8.33;;;;;9.30;101356.00;;;;10350619;28;20555;-78
2023/04/05 18:20:13;;;;;;;14.27;8.07;;;;;9.00;101367.00;;;;10364551;28;20265;-78
2023/04/05 18:25:16;;;;;;;14.13;8.20;;;;;8.80;101357.00;;;;10351870;28;20245;-78
2023/04/05 18:30:21;;;;;;;14.90;8.87;;;;;8.50;101362.00;;;;10362857;28;20227;-78
2023/04/05 18:35:23;;;;;;;15.60;8.83;;;;;8.30;101362.00;;;;10365197;28;20290;-78
2023/04/05 18:40:25;;;;;;;18.20;8.83;;;;;8.10;101368.00;;;;10381991;28;20926;-78
2023/04/05 18:45:27;;;;;;;13.57;7.70;;;;;8.00;101372.00;;;;10363363;28;20689;-78
2023/04/05 18:50:30;;;;;;;13.10;8.27;;;;;7.80;101380.00;;;;10367925;28;20783;-78
2023/04/05 18:55:32;;;;;;;17.20;9.23;;;;;7.80;101377.00;;;;10360469;28;20253;-78
2023/04/05 19:00:34;;;;;;;13.87;8.67;;;;;7.70;101383.00;;;;10383862;28;20905;-78
2023/04/05 19:05:36;;;;;;;15.60;9.60;;;;;7.60;101386.00;;;;10397679;28;20289;-78
2023/04/05 19:10:38;;;;;;;17.10;9.83;;;;;7.40;101383.00;;;;10337341;28;20229;-78
2023/04/05 19:15:41;;;;;;;20.77;10.70;;;;;7.20;101382.00;;;;10373085;28;20241;-78
2023/04/05 19:20:43;;;;;;;24.40;14.80;;;;;7.00;101389.00;;;;10371841;28;20605;-78
2023/04/05 19:25:45;;;;;;;20.03;13.13;;;;;6.90;101389.00;;;;10358691;28;20222;-77
2023/04/05 19:30:48;;;;;;;18.17;10.77;;;;;6.80;101386.00;;;;10332881;28;20191;-78
2023/04/05 19:35:50;;;;;;;18.00;9.93;;;;;6.70;101387.00;;;;10342057;28;20203;-78
2023/04/05 19:40:53;;;;;;;17.53;10.50;;;;;6.50;101387.00;;;;10373070;28;20195;-78
2023/04/05 19:45:56;;;;;;;27.30;17.30;;;;;6.40;101386.00;;;;10358361;28;20223;-78
2023/04/05 19:50:59;;;;;;;43.27;21.90;;;;;6.40;101376.00;;;;10356654;28;20675;-78
2023/04/05 19:56:18;;;;;;;31.70;19.50;;;;;6.40;101376.00;;;;10371563;28;20206;-78
2023/04/05 20:01:37;;;;;;;31.77;19.80;;;;;6.30;101380.00;;;;10372619;28;20206;-78
2023/04/05 20:06:41;;;;;;;28.13;17.17;;;;;6.10;101375.00;;;;10376173;28;20218;-78
2023/04/05 20:11:53;;;;;;;26.37;14.80;;;;;5.90;101383.00;;;;10345458;28;20966;-78
2023/04/05 20:16:56;;;;;;;30.33;17.87;;;;;5.80;101372.00;;;;10383048;28;20203;-78
2023/04/05 20:22:05;;;;;;;31.80;18.33;;;;;5.70;101367.00;;;;10359508;28;20310;-78
2023/04/05 20:27:11;;;;;;;30.17;17.67;;;;;5.60;101369.00;;;;10393830;28;20231;-78
2023/04/05 20:32:13;;;;;;;22.60;11.53;;;;;5.60;101355.00;;;;10387239;28;20233;-79
2023/04/05 20:37:16;;;;;;;20.87;12.20;;;;;6.10;101348.00;;;;10356249;28;20268;-79
2023/04/05 20:42:18;;;;;;;20.90;10.73;;;;;6.40;101348.00;;;;10371363;28;20207;-79
2023/04/05 20:47:20;;;;;;;21.20;11.00;;;;;6.50;101343.00;;;;10395035;28;20261;-78
2023/04/05 20:52:22;;;;;;;19.50;11.40;;;;;6.50;101335.00;;;;10377028;28;20223;-79
2023/04/05 20:57:25;;;;;;;20.33;12.03;;;;;6.50;101337.00;;;;10390494;28;20261;-79
2023/04/05 21:02:27;;;;;;;22.73;12.00;;;;;6.60;101325.00;;;;10392821;28;20205;-79
2023/04/05 21:07:30;;;;;;;23.10;12.47;;;;;6.60;101324.00;;;;10339858;28;20262;-79
2023/04/05 21:12:32;;;;;;;22.20;12.67;;;;;6.60;101318.00;;;;10344780;28;20296;-79
2023/04/05 21:17:34;;;;;;;22.83;11.97;;;;;6.60;101307.00;;;;10365793;28;20206;-79
2023/04/05 21:22:37;;;;;;;18.37;10.97;;;;;6.70;101310.00;;;;10370745;28;20223;-78
2023/04/05 21:27:39;;;;;;;22.13;12.33;;;;;6.90;101311.00;;;;10359934;28;20219;-79
2023/04/05 21:32:41;;;;;;;19.73;11.17;;;;;6.90;101311.00;;;;10380703;28;20195;-79
2023/04/05 21:37:43;;;;;;;19.77;11.20;;;;;6.90;101299.00;;;;10366672;28;20230;-79
2023/04/05 21:42:45;;;;;;;21.53;12.23;;;;;6.80;101306.00;;;;10353678;28;20192;-78
2023/04/05 21:47:48;;;;;;;18.70;11.23;;;;;6.70;101299.00;;;;10383445;28;20195;-79
2023/04/05 21:52:50;;;;;;;21.47;11.80;;;;;6.60;101311.00;;;;10358809;28;20245;-79
2023/04/05 21:57:52;;;;;;;23.50;12.27;;;;;6.60;101297.00;;;;10366166;28;20284;-79
2023/04/05 22:02:53;;;;;;;21.03;11.33;;;;;6.50;101300.00;;;;10350372;28;20212;-79
2023/04/05 22:07:56;;;;;;;20.53;10.87;;;;;6.40;101297.00;;;;10375936;28;20210;-79
2023/04/05 22:12:58;;;;;;;24.53;12.77;;;;;6.50;101298.00;;;;10355663;28;20229;-78
2023/04/05 22:18:01;;;;;;;21.23;11.03;;;;;6.50;101296.00;;;;10403617;28;20240;-78
2023/04/05 22:23:03;;;;;;;20.20;11.03;;;;;6.50;101291.00;;;;10403977;28;20773;-78
2023/04/05 22:28:05;;;;;;;19.83;12.03;;;;;6.50;101290.00;;;;10388704;28;20187;-78
2023/04/05 22:33:07;;;;;;;22.10;12.17;;;;;6.50;101286.00;;;;10371053;28;20233;-78
2023/04/05 22:38:09;;;;;;;19.27;11.50;;;;;6.40;101284.00;;;;10387726;28;20688;-78
2023/04/05 22:43:11;;;;;;;24.00;11.63;;;;;6.40;101281.00;;;;10380843;28;20200;-78
2023/04/05 22:48:13;;;;;;;25.13;11.20;;;;;6.40;101276.00;;;;10375759;28;20199;-78
2023/04/05 22:53:15;;;;;;;21.00;11.60;;;;;6.30;101272.00;;;;10383612;28;20202;-79
2023/04/05 22:58:20;;;;;;;18.10;11.17;;;;;6.30;101272.00;;;;10363298;28;20262;-79
2023/04/05 23:03:22;;;;;;;20.83;11.67;;;;;6.30;101266.00;;;;10407392;28;20223;-78
2023/04/05 23:08:24;;;;;;;22.23;11.73;;;;;6.30;101268.00;;;;10372844;28;20214;-79
2023/04/05 23:13:26;;;;;;;21.20;11.20;;;;;6.30;101256.00;;;;10370610;28;20226;-79
2023/04/05 23:18:29;;;;;;;19.00;10.60;;;;;6.40;101257.00;;;;10369434;28;20199;-78
2023/04/05 23:23:31;;;;;;;22.27;11.07;;;;;6.30;101261.00;;;;10362709;28;20211;-79
2023/04/05 23:28:33;;;;;;;20.80;9.77;;;;;6.30;101258.00;;;;10378043;28;20229;-78
2023/04/05 23:33:35;;;;;;;18.37;10.50;;;;;6.30;101243.00;;;;10378562;28;20282;-78
2023/04/05 23:38:37;;;;;;;19.43;10.53;;;;;6.20;101244.00;;;;10394428;28;20826;-78
2023/04/05 23:43:39;;;;;;;20.13;10.80;;;;;6.20;101241.00;;;;10366711;28;20211;-78
2023/04/05 23:48:42;;;;;;;20.30;11.07;;;;;6.20;101238.00;;;;10377313;28;20206;-78
2023/04/05 23:53:44;;;;;;;19.03;10.83;;;;;6.20;101238.00;;;;10377250;28;20211;-79
2023/04/05 23:58:46;;;;;;;18.97;10.57;;;;;6.10;101230.00;;;;10347866;28;20191;-79
